sensor_id;sensor_type;location;lat;lon;timestamp;pressure;altitude;pressure_sealevel;temperature;humidity
55070;BME280;40967;52.070;8.596;2023-12-22T00:00:33;98552.91;;;4.93;96.88
55070;BME280;40967;52.070;8.596;2023-12-22T00:03:00;98538.38;;;4.94;96.55
55070;BME280;40967;52.070;8.596;2023-12-22T00:05:27;98542.66;;;4.95;95.71
55070;BME280;40967;52.070;8.596;2023-12-22T00:07:54;98518.84;;;4.84;95.89
55070;BME280;40967;52.070;8.596;2023-12-22T00:10:21;98550.66;;;5.05;96.11
55070;BME280;40967;52.070;8.596;2023-12-22T00:12:48;98542.13;;;4.98;97.60
55070;BME280;40967;52.070;8.596;2023-12-22T00:15:16;98536.44;;;5.00;97.63
55070;BME280;40967;52.070;8.596;2023-12-22T00:17:43;98556.56;;;5.02;98.48
55070;BME280;40967;52.070;8.596;2023-12-22T00:20:10;98547.44;;;5.03;99.37
55070;BME280;40967;52.070;8.596;2023-12-22T00:22:39;98544.19;;;5.06;100.00
55070;BME280;40967;52.070;8.596;2023-12-22T00:25:08;98550.13;;;5.03;100.00
55070;BME280;40967;52.070;8.596;2023-12-22T00:27:35;98543.94;;;5.03;100.00
55070;BME280;40967;52.070;8.596;2023-12-22T00:30:02;98615.94;;;5.06;100.00
55070;BME280;40967;52.070;8.596;2023-12-22T00:32:31;98576.28;;;4.93;100.00
55070;BME280;40967;52.070;8.596;2023-12-22T00:34:58;98636.72;;;4.51;100.00
55070;BME280;40967;52.070;8.596;2023-12-22T00:37:24;98610.59;;;3.98;100.00
55070;BME280;40967;52.070;8.596;2023-12-22T00:39:51;98618.19;;;3.66;100.00
55070;BME280;40967;52.070;8.596;2023-12-22T00:42:18;98660.03;;;3.37;100.00
55070;BME280;40967;52.070;8.596;2023-12-22T00:44:46;98611.50;;;3.18;100.00
55070;BME280;40967;52.070;8.596;2023-12-22T00:47:13;98627.03;;;3.11;100.00
55070;BME280;40967;52.070;8.596;2023-12-22T00:49:41;98628.91;;;3.06;100.00
55070;BME280;40967;52.070;8.596;2023-12-22T00:52:09;98618.72;;;3.03;100.00
55070;BME280;40967;52.070;8.596;2023-12-22T00:54:39;98636.44;;;3.09;100.00
55070;BME280;40967;52.070;8.596;2023-12-22T00:57:07;98605.88;;;3.05;100.00
55070;BME280;40967;52.070;8.596;2023-12-22T00:59:34;98612.31;;;3.14;100.00
55070;BME280;40967;52.070;8.596;2023-12-22T01:02:01;98615.81;;;3.24;100.00
55070;BME280;40967;52.070;8.596;2023-12-22T01:04:29;98608.56;;;3.30;100.00
55070;BME280;40967;52.070;8.596;2023-12-22T01:06:57;98606.94;;;3.39;100.00
55070;BME280;40967;52.070;8.596;2023-12-22T01:09:24;98616.31;;;3.46;100.00
55070;BME280;40967;52.070;8.596;2023-12-22T01:11:51;98616.59;;;3.55;100.00
55070;BME280;40967;52.070;8.596;2023-12-22T01:14:18;98606.94;;;3.59;100.00
55070;BME280;40967;52.070;8.596;2023-12-22T01:16:45;98614.41;;;3.67;100.00
55070;BME280;40967;52.070;8.596;2023-12-22T01:19:12;98620.84;;;3.71;100.00
55070;BME280;40967;52.070;8.596;2023-12-22T01:21:39;98663.22;;;3.79;100.00
55070;BME280;40967;52.070;8.596;2023-12-22T01:24:07;98651.66;;;3.89;100.00
55070;BME280;40967;52.070;8.596;2023-12-22T01:26:37;98672.34;;;3.78;100.00
55070;BME280;40967;52.070;8.596;2023-12-22T01:29:04;98681.72;;;3.66;100.00
55070;BME280;40967;52.070;8.596;2023-12-22T01:31:31;98688.72;;;3.41;100.00
55070;BME280;40967;52.070;8.596;2023-12-22T01:33:57;98672.59;;;3.11;100.00
55070;BME280;40967;52.070;8.596;2023-12-22T01:36:24;98689.97;;;2.94;100.00
55070;BME280;40967;52.070;8.596;2023-12-22T01:38:51;98707.59;;;2.80;100.00
55070;BME280;40967;52.070;8.596;2023-12-22T01:41:22;98661.50;;;2.68;100.00
55070;BME280;40967;52.070;8.596;2023-12-22T01:43:50;98645.44;;;2.68;100.00
55070;BME280;40967;52.070;8.596;2023-12-22T01:46:17;98630.47;;;2.72;100.00
55070;BME280;40967;52.070;8.596;2023-12-22T01:48:46;98636.94;;;2.81;100.00
55070;BME280;40967;52.070;8.596;2023-12-22T01:51:19;98641.22;;;2.87;100.00
55070;BME280;40967;52.070;8.596;2023-12-22T01:53:46;98640.69;;;2.85;100.00
55070;BME280;40967;52.070;8.596;2023-12-22T01:56:13;98645.50;;;2.93;100.00
55070;BME280;40967;52.070;8.596;2023-12-22T01:58:42;98652.47;;;2.94;100.00
55070;BME280;40967;52.070;8.596;2023-12-22T02:01:10;98663.72;;;2.91;100.00
55070;BME280;40967;52.070;8.596;2023-12-22T02:03:37;98686.25;;;3.00;100.00
55070;BME280;40967;52.070;8.596;2023-12-22T02:06:05;98672.03;;;3.04;100.00
55070;BME280;40967;52.070;8.596;2023-12-22T02:08:32;98655.47;;;3.07;100.00
55070;BME280;40967;52.070;8.596;2023-12-22T02:11:03;98651.69;;;3.18;100.00
55070;BME280;40967;52.070;8.596;2023-12-22T02:13:31;98668.88;;;3.22;100.00
55070;BME280;40967;52.070;8.596;2023-12-22T02:16:04;98678.00;;;3.36;100.00
55070;BME280;40967;52.070;8.596;2023-12-22T02:18:39;98641.78;;;3.39;100.00
55070;BME280;40967;52.070;8.596;2023-12-22T02:21:10;98656.81;;;3.55;100.00
55070;BME280;40967;52.070;8.596;2023-12-22T02:23:38;98647.16;;;3.54;100.00
55070;BME280;40967;52.070;8.596;2023-12-22T02:26:11;98671.28;;;3.64;100.00
55070;BME280;40967;52.070;8.596;2023-12-22T02:28:40;98668.59;;;3.69;100.00
55070;BME280;40967;52.070;8.596;2023-12-22T02:31:16;98684.13;;;3.77;100.00
55070;BME280;40967;52.070;8.596;2023-12-22T02:33:47;98699.16;;;3.88;100.00
55070;BME280;40967;52.070;8.596;2023-12-22T02:36:16;98689.22;;;3.94;100.00
55070;BME280;40967;52.070;8.596;2023-12-22T02:38:46;98707.72;;;4.00;100.00
55070;BME280;40967;52.070;8.596;2023-12-22T02:41:15;98728.66;;;3.98;100.00
55070;BME280;40967;52.070;8.596;2023-12-22T02:43:42;98740.97;;;3.89;100.00
55070;BME280;40967;52.070;8.596;2023-12-22T02:46:15;98731.06;;;3.80;100.00
55070;BME280;40967;52.070;8.596;2023-12-22T02:48:42;98723.84;;;3.75;100.00
55070;BME280;40967;52.070;8.596;2023-12-22T02:51:09;98697.53;;;3.72;100.00
55070;BME280;40967;52.070;8.596;2023-12-22T02:53:39;98709.38;;;3.66;100.00
55070;BME280;40967;52.070;8.596;2023-12-22T02:56:07;98693.25;;;3.46;100.00
55070;BME280;40967;52.070;8.596;2023-12-22T02:58:34;98700.25;;;3.47;100.00
55070;BME280;40967;52.070;8.596;2023-12-22T03:01:04;98675.84;;;3.43;100.00
55070;BME280;40967;52.070;8.596;2023-12-22T03:03:31;98667.00;;;3.38;100.00
55070;BME280;40967;52.070;8.596;2023-12-22T03:05:57;98669.94;;;3.41;100.00
55070;BME280;40967;52.070;8.596;2023-12-22T03:08:27;98673.16;;;3.43;100.00
55070;BME280;40967;52.070;8.596;2023-12-22T03:20:26;98664.84;;;3.50;100.00
55070;BME280;40967;52.070;8.596;2023-12-22T03:22:52;98680.16;;;3.60;100.00
55070;BME280;40967;52.070;8.596;2023-12-22T03:25:18;98670.47;;;3.59;100.00
55070;BME280;40967;52.070;8.596;2023-12-22T03:27:45;98669.16;;;3.61;100.00
55070;BME280;40967;52.070;8.596;2023-12-22T03:30:13;98663.78;;;3.66;100.00
55070;BME280;40967;52.070;8.596;2023-12-22T03:32:42;98654.09;;;3.70;100.00
55070;BME280;40967;52.070;8.596;2023-12-22T03:35:08;98640.16;;;3.58;100.00
55070;BME280;40967;52.070;8.596;2023-12-22T03:37:37;98675.56;;;3.85;100.00
55070;BME280;40967;52.070;8.596;2023-12-22T03:40:04;98655.16;;;3.84;100.00
55070;BME280;40967;52.070;8.596;2023-12-22T03:42:31;98664.25;;;3.93;100.00
55070;BME280;40967;52.070;8.596;2023-12-22T03:44:58;98659.69;;;3.99;100.00
55070;BME280;40967;52.070;8.596;2023-12-22T03:47:25;98654.84;;;4.06;100.00
55070;BME280;40967;52.070;8.596;2023-12-22T03:49:52;98656.69;;;4.10;100.00
55070;BME280;40967;52.070;8.596;2023-12-22T03:52:19;98664.22;;;4.13;100.00
55070;BME280;40967;52.070;8.596;2023-12-22T03:54:48;98653.47;;;4.18;100.00
55070;BME280;40967;52.070;8.596;2023-12-22T03:57:15;98652.91;;;4.21;100.00
55070;BME280;40967;52.070;8.596;2023-12-22T03:59:43;98672.81;;;4.20;100.00
55070;BME280;40967;52.070;8.596;2023-12-22T04:02:10;98649.44;;;4.16;100.00
55070;BME280;40967;52.070;8.596;2023-12-22T04:04:38;98675.22;;;4.17;100.00
55070;BME280;40967;52.070;8.596;2023-12-22T04:07:08;98655.91;;;4.10;100.00
55070;BME280;40967;52.070;8.596;2023-12-22T04:09:36;98661.00;;;4.16;100.00
55070;BME280;40967;52.070;8.596;2023-12-22T04:12:05;98670.88;;;4.26;100.00
55070;BME280;40967;52.070;8.596;2023-12-22T04:14:33;98688.34;;;4.23;100.00
55070;BME280;40967;52.070;8.596;2023-12-22T04:17:00;98685.69;;;4.18;100.00
55070;BME280;40967;52.070;8.596;2023-12-22T04:19:28;98691.06;;;4.18;100.00
55070;BME280;40967;52.070;8.596;2023-12-22T04:21:57;98688.09;;;4.20;100.00
55070;BME280;40967;52.070;8.596;2023-12-22T04:24:27;98689.69;;;4.21;100.00
55070;BME280;40967;52.070;8.596;2023-12-22T04:26:54;98678.16;;;4.10;100.00
55070;BME280;40967;52.070;8.596;2023-12-22T04:29:22;98696.41;;;4.18;100.00
55070;BME280;40967;52.070;8.596;2023-12-22T04:31:49;98691.03;;;4.23;100.00
55070;BME280;40967;52.070;8.596;2023-12-22T04:34:16;98676.25;;;4.21;100.00
55070;BME280;40967;52.070;8.596;2023-12-22T04:36:43;98674.41;;;4.21;100.00
55070;BME280;40967;52.070;8.596;2023-12-22T04:39:11;98661.81;;;4.17;100.00
55070;BME280;40967;52.070;8.596;2023-12-22T04:41:38;98676.53;;;4.19;100.00
55070;BME280;40967;52.070;8.596;2023-12-22T04:44:04;98682.97;;;4.23;100.00
55070;BME280;40967;52.070;8.596;2023-12-22T04:46:33;98679.22;;;4.24;100.00
55070;BME280;40967;52.070;8.596;2023-12-22T04:49:01;98677.34;;;4.25;100.00
55070;BME280;40967;52.070;8.596;2023-12-22T04:51:28;98680.03;;;4.25;100.00
55070;BME280;40967;52.070;8.596;2023-12-22T04:53:56;98679.19;;;4.29;100.00
55070;BME280;40967;52.070;8.596;2023-12-22T04:56:23;98681.88;;;4.29;100.00
55070;BME280;40967;52.070;8.596;2023-12-22T04:58:50;98670.34;;;4.34;100.00
55070;BME280;40967;52.070;8.596;2023-12-22T05:01:18;98674.34;;;4.36;100.00
55070;BME280;40967;52.070;8.596;2023-12-22T05:03:47;98691.78;;;4.44;100.00
55070;BME280;40967;52.070;8.596;2023-12-22T05:06:19;98696.59;;;4.42;100.00
55070;BME280;40967;52.070;8.596;2023-12-22T05:08:46;98688.28;;;4.38;100.00
55070;BME280;40967;52.070;8.596;2023-12-22T05:11:13;98674.34;;;4.36;100.00
55070;BME280;40967;52.070;8.596;2023-12-22T05:13:39;98679.97;;;4.40;100.00
55070;BME280;40967;52.070;8.596;2023-12-22T05:16:11;98686.41;;;4.44;100.00
55070;BME280;40967;52.070;8.596;2023-12-22T05:18:39;98703.03;;;4.46;100.00
55070;BME280;40967;52.070;8.596;2023-12-22T05:21:12;98690.69;;;4.45;100.00
55070;BME280;40967;52.070;8.596;2023-12-22T05:23:40;98687.19;;;4.49;100.00
55070;BME280;40967;52.070;8.596;2023-12-22T05:26:07;98690.41;;;4.51;100.00
55070;BME280;40967;52.070;8.596;2023-12-22T05:28:34;98674.34;;;4.36;100.00
55070;BME280;40967;52.070;8.596;2023-12-22T05:31:00;98696.88;;;4.45;100.00
55070;BME280;40967;52.070;8.596;2023-12-22T05:33:27;98710.56;;;4.44;100.00
55070;BME280;40967;52.070;8.596;2023-12-22T05:35:54;98699.03;;;4.38;100.00
55070;BME280;40967;52.070;8.596;2023-12-22T05:38:22;98720.53;;;4.33;100.00
55070;BME280;40967;52.070;8.596;2023-12-22T05:40:49;98733.16;;;4.23;100.00
55070;BME280;40967;52.070;8.596;2023-12-22T05:43:17;98724.06;;;4.14;100.00
55070;BME280;40967;52.070;8.596;2023-12-22T05:45:46;98726.47;;;4.05;100.00
55070;BME280;40967;52.070;8.596;2023-12-22T05:48:13;98708.53;;;3.96;100.00
55070;BME280;40967;52.070;8.596;2023-12-22T05:50:40;98699.41;;;3.97;100.00
55070;BME280;40967;52.070;8.596;2023-12-22T05:53:07;98710.41;;;4.00;100.00
55070;BME280;40967;52.070;8.596;2023-12-22T05:55:38;98720.88;;;3.97;100.00
55070;BME280;40967;52.070;8.596;2023-12-22T05:58:08;98725.41;;;3.96;100.00
55070;BME280;40967;52.070;8.596;2023-12-22T06:00:35;98740.47;;;3.97;100.00
55070;BME280;40967;52.070;8.596;2023-12-22T06:03:03;98732.41;;;4.02;100.00
55070;BME280;40967;52.070;8.596;2023-12-22T06:05:31;98714.16;;;3.99;100.00
55070;BME280;40967;52.070;8.596;2023-12-22T06:07:58;98723.81;;;4.00;100.00
55070;BME280;40967;52.070;8.596;2023-12-22T06:10:28;98725.44;;;4.06;100.00
55070;BME280;40967;52.070;8.596;2023-12-22T06:12:56;98716.31;;;3.97;100.00
55070;BME280;40967;52.070;8.596;2023-12-22T06:15:23;98736.66;;;4.08;100.00
55070;BME280;40967;52.070;8.596;2023-12-22T06:17:50;98741.25;;;4.03;100.00
55070;BME280;40967;52.070;8.596;2023-12-22T06:20:17;98742.59;;;4.05;100.00
55070;BME280;40967;52.070;8.596;2023-12-22T06:22:44;98749.56;;;4.11;100.00
55070;BME280;40967;52.070;8.596;2023-12-22T06:25:11;98757.63;;;4.16;100.00
55070;BME280;40967;52.070;8.596;2023-12-22T06:27:39;98754.41;;;4.14;100.00
55070;BME280;40967;52.070;8.596;2023-12-22T06:30:15;98763.53;;;4.18;100.00
55070;BME280;40967;52.070;8.596;2023-12-22T06:32:46;98759.19;;;4.22;100.00
55070;BME280;40967;52.070;8.596;2023-12-22T06:35:13;98770.75;;;4.28;100.00
55070;BME280;40967;52.070;8.596;2023-12-22T06:37:40;98759.72;;;4.29;100.00
55070;BME280;40967;52.070;8.596;2023-12-22T06:40:08;98761.63;;;4.29;100.00
55070;BME280;40967;52.070;8.596;2023-12-22T06:47:49;98728.63;;;4.13;100.00
55070;BME280;40967;52.070;8.596;2023-12-22T06:50:16;98769.91;;;4.47;100.00
55070;BME280;40967;52.070;8.596;2023-12-22T06:52:43;98780.63;;;4.57;100.00
55070;BME280;40967;52.070;8.596;2023-12-22T06:55:10;98778.75;;;4.58;100.00
55070;BME280;40967;52.070;8.596;2023-12-22T06:57:40;98808.00;;;4.59;100.00
55070;BME280;40967;52.070;8.596;2023-12-22T07:00:08;98793.50;;;4.60;100.00
55070;BME280;40967;52.070;8.596;2023-12-22T07:02:35;98801.81;;;4.64;100.00
55070;BME280;40967;52.070;8.596;2023-12-22T07:05:30;98805.03;;;4.66;100.00
55070;BME280;40967;52.070;8.596;2023-12-22T07:07:57;98799.91;;;4.70;100.00
55070;BME280;40967;52.070;8.596;2023-12-22T07:10:24;98822.75;;;4.72;100.00
55070;BME280;40967;52.070;8.596;2023-12-22T07:12:52;98799.41;;;4.62;100.00
55070;BME280;40967;52.070;8.596;2023-12-22T07:15:21;98825.16;;;4.74;100.00
55070;BME280;40967;52.070;8.596;2023-12-22T07:17:48;98806.91;;;4.76;100.00
55070;BME280;40967;52.070;8.596;2023-12-22T07:20:14;98822.19;;;4.80;100.00
55070;BME280;40967;52.070;8.596;2023-12-22T07:22:44;98835.34;;;4.82;100.00
55070;BME280;40967;52.070;8.596;2023-12-22T07:25:11;98834.81;;;4.80;100.00
55070;BME280;40967;52.070;8.596;2023-12-22T07:27:38;98826.75;;;4.85;100.00
55070;BME280;40967;52.070;8.596;2023-12-22T07:30:06;98836.69;;;4.84;100.00
55070;BME280;40967;52.070;8.596;2023-12-22T07:32:33;98828.88;;;4.88;100.00
55070;BME280;40967;52.070;8.596;2023-12-22T07:35:00;98834.25;;;4.93;100.00
55070;BME280;40967;52.070;8.596;2023-12-22T07:37:26;98826.47;;;4.86;100.00
55070;BME280;40967;52.070;8.596;2023-12-22T07:39:55;98849.03;;;5.00;100.00
55070;BME280;40967;52.070;8.596;2023-12-22T07:42:21;98844.72;;;4.94;100.00
55070;BME280;40967;52.070;8.596;2023-12-22T07:44:48;98838.28;;;4.90;100.00
55070;BME280;40967;52.070;8.596;2023-12-22T07:47:15;98843.63;;;4.95;100.00
55070;BME280;40967;52.070;8.596;2023-12-22T07:49:43;98859.50;;;5.02;100.00
55070;BME280;40967;52.070;8.596;2023-12-22T07:52:10;98869.16;;;5.03;100.00
55070;BME280;40967;52.070;8.596;2023-12-22T07:54:37;98849.31;;;4.84;100.00
55070;BME280;40967;52.070;8.596;2023-12-22T07:57:05;98867.81;;;5.05;100.00
55070;BME280;40967;52.070;8.596;2023-12-22T07:59:32;98839.63;;;4.93;100.00
55070;BME280;40967;52.070;8.596;2023-12-22T08:02:06;98838.78;;;4.97;100.00
55070;BME280;40967;52.070;8.596;2023-12-22T08:04:33;98856.81;;;5.02;100.00
55070;BME280;40967;52.070;8.596;2023-12-22T08:07:00;98863.50;;;5.04;100.00
55070;BME280;40967;52.070;8.596;2023-12-22T08:09:27;98874.81;;;5.01;100.00
55070;BME280;40967;52.070;8.596;2023-12-22T08:11:54;98865.13;;;5.00;100.00
55070;BME280;40967;52.070;8.596;2023-12-22T08:14:32;98870.50;;;5.05;100.00
55070;BME280;40967;52.070;8.596;2023-12-22T08:17:08;98877.19;;;5.13;100.00
55070;BME280;40967;52.070;8.596;2023-12-22T08:19:38;98876.66;;;5.11;100.00
55070;BME280;40967;52.070;8.596;2023-12-22T08:22:09;98860.56;;;4.96;100.00
55070;BME280;40967;52.070;8.596;2023-12-22T08:24:38;98885.25;;;5.13;100.00
55070;BME280;40967;52.070;8.596;2023-12-22T08:27:07;98886.88;;;5.14;100.00
55070;BME280;40967;52.070;8.596;2023-12-22T08:29:40;98878.25;;;5.17;100.00
55070;BME280;40967;52.070;8.596;2023-12-22T08:32:12;98862.41;;;5.15;100.00
55070;BME280;40967;52.070;8.596;2023-12-22T08:34:39;98876.34;;;5.22;100.00
55070;BME280;40967;52.070;8.596;2023-12-22T08:37:06;98888.97;;;5.22;100.00
55070;BME280;40967;52.070;8.596;2023-12-22T08:39:33;98882.00;;;5.21;100.00
55070;BME280;40967;52.070;8.596;2023-12-22T08:42:00;98894.34;;;5.22;100.00
55070;BME280;40967;52.070;8.596;2023-12-22T08:44:27;98900.56;;;5.22;100.00
55070;BME280;40967;52.070;8.596;2023-12-22T08:46:55;98904.56;;;5.25;100.00
55070;BME280;40967;52.070;8.596;2023-12-22T08:49:22;98892.19;;;5.24;100.00
55070;BME280;40967;52.070;8.596;2023-12-22T08:51:49;98896.50;;;5.30;100.00
55070;BME280;40967;52.070;8.596;2023-12-22T08:54:16;98914.75;;;5.33;100.00
55070;BME280;40967;52.070;8.596;2023-12-22T08:56:43;98897.81;;;5.32;100.00
55070;BME280;40967;52.070;8.596;2023-12-22T08:59:13;98885.22;;;5.23;100.00
55070;BME280;40967;52.070;8.596;2023-12-22T09:01:41;98883.31;;;5.28;100.00
55070;BME280;40967;52.070;8.596;2023-12-22T09:04:12;98899.16;;;5.40;100.00
55070;BME280;40967;52.070;8.596;2023-12-22T09:06:39;98900.19;;;5.44;100.00
55070;BME280;40967;52.070;8.596;2023-12-22T09:09:06;98891.84;;;5.40;100.00
55070;BME280;40967;52.070;8.596;2023-12-22T09:11:33;98881.09;;;5.40;100.00
55070;BME280;40967;52.070;8.596;2023-12-22T09:13:59;98893.75;;;5.45;100.00
55070;BME280;40967;52.070;8.596;2023-12-22T09:16:26;98885.94;;;5.43;100.00
55070;BME280;40967;52.070;8.596;2023-12-22T09:18:56;98885.66;;;5.45;100.00
55070;BME280;40967;52.070;8.596;2023-12-22T09:21:25;98883.50;;;5.52;100.00
55070;BME280;40967;52.070;8.596;2023-12-22T09:23:52;98898.00;;;5.56;100.00
55070;BME280;40967;52.070;8.596;2023-12-22T09:26:19;98899.59;;;5.57;100.00
55070;BME280;40967;52.070;8.596;2023-12-22T09:28:49;98900.69;;;5.56;100.00
55070;BME280;40967;52.070;8.596;2023-12-22T09:31:16;98873.03;;;5.45;100.00
55070;BME280;40967;52.070;8.596;2023-12-22T09:33:45;98913.06;;;5.57;100.00
55070;BME280;40967;52.070;8.596;2023-12-22T09:36:12;98916.28;;;5.59;100.00
55070;BME280;40967;52.070;8.596;2023-12-22T09:38:41;98902.03;;;5.53;100.00
55070;BME280;40967;52.070;8.596;2023-12-22T09:41:10;98904.69;;;5.58;100.00
55070;BME280;40967;52.070;8.596;2023-12-22T09:43:48;98899.84;;;5.60;100.00
55070;BME280;40967;52.070;8.596;2023-12-22T09:46:25;98906.06;;;5.61;100.00
55070;BME280;40967;52.070;8.596;2023-12-22T09:48:53;98885.13;;;5.48;100.00
55070;BME280;40967;52.070;8.596;2023-12-22T09:51:21;98900.69;;;5.56;100.00
55070;BME280;40967;52.070;8.596;2023-12-22T09:53:51;98903.38;;;5.56;100.00
55070;BME280;40967;52.070;8.596;2023-12-22T09:56:23;98894.00;;;5.48;100.00
55070;BME280;40967;52.070;8.596;2023-12-22T09:58:51;98889.94;;;5.51;100.00
55070;BME280;40967;52.070;8.596;2023-12-22T10:01:21;98894.00;;;5.48;100.00
55070;BME280;40967;52.070;8.596;2023-12-22T10:03:49;98880.25;;;5.50;100.00
55070;BME280;40967;52.070;8.596;2023-12-22T10:06:17;98873.53;;;5.47;100.00
55070;BME280;40967;52.070;8.596;2023-12-22T10:08:46;98854.97;;;5.51;100.00
55070;BME280;40967;52.070;8.596;2023-12-22T10:11:18;98853.94;;;5.47;100.00
55070;BME280;40967;52.070;8.596;2023-12-22T10:13:48;98842.56;;;5.55;100.00
55070;BME280;40967;52.070;8.596;2023-12-22T10:16:39;98846.91;;;5.51;100.00
55070;BME280;40967;52.070;8.596;2023-12-22T10:19:06;98844.19;;;5.51;100.00
55070;BME280;40967;52.070;8.596;2023-12-22T10:21:34;98836.63;;;5.58;100.00
55070;BME280;40967;52.070;8.596;2023-12-22T10:24:01;98836.13;;;5.56;100.00
55070;BME280;40967;52.070;8.596;2023-12-22T10:26:30;98839.31;;;5.58;100.00
55070;BME280;40967;52.070;8.596;2023-12-22T10:28:56;98831.25;;;5.58;100.00
55070;BME280;40967;52.070;8.596;2023-12-22T10:31:46;98829.09;;;5.60;100.00
55070;BME280;40967;52.070;8.596;2023-12-22T10:34:13;98848.22;;;5.58;100.00
55070;BME280;40967;52.070;8.596;2023-12-22T10:36:48;98844.72;;;5.58;100.00
55070;BME280;40967;52.070;8.596;2023-12-22T10:39:16;98846.31;;;5.64;100.00
55070;BME280;40967;52.070;8.596;2023-12-22T10:42:05;98836.06;;;5.66;100.00
55070;BME280;40967;52.070;8.596;2023-12-22T10:44:49;98835.28;;;5.60;100.00
55070;BME280;40967;52.070;8.596;2023-12-22T10:47:17;98830.13;;;5.69;100.00
55070;BME280;40967;52.070;8.596;2023-12-22T10:49:45;98833.34;;;5.71;100.00
55070;BME280;40967;52.070;8.596;2023-12-22T10:52:16;98825.84;;;5.68;100.00
55070;BME280;40967;52.070;8.596;2023-12-22T10:54:45;98829.84;;;5.70;100.00
55070;BME280;40967;52.070;8.596;2023-12-22T10:57:13;98819.38;;;5.69;100.00
55070;BME280;40967;52.070;8.596;2023-12-22T10:59:47;98826.34;;;5.70;100.00
55070;BME280;40967;52.070;8.596;2023-12-22T11:02:18;98826.91;;;5.67;100.00
55070;BME280;40967;52.070;8.596;2023-12-22T11:04:55;98829.81;;;5.75;100.00
55070;BME280;40967;52.070;8.596;2023-12-22T11:07:24;98810.22;;;5.65;100.00
55070;BME280;40967;52.070;8.596;2023-12-22T11:09:51;98797.59;;;5.65;100.00
55070;BME280;40967;52.070;8.596;2023-12-22T11:12:23;98810.94;;;5.80;100.00
55070;BME280;40967;52.070;8.596;2023-12-22T11:14:52;98803.16;;;5.79;100.00
55070;BME280;40967;52.070;8.596;2023-12-22T11:17:26;98809.34;;;5.85;100.00
55070;BME280;40967;52.070;8.596;2023-12-22T11:19:58;98794.03;;;5.75;100.00
55070;BME280;40967;52.070;8.596;2023-12-22T11:22:31;98807.19;;;5.82;100.00
55070;BME280;40967;52.070;8.596;2023-12-22T11:25:00;98789.97;;;5.77;100.00
55070;BME280;40967;52.070;8.596;2023-12-22T11:27:43;98790.22;;;5.81;100.00
55070;BME280;40967;52.070;8.596;2023-12-22T11:30:11;98792.91;;;5.86;100.00
55070;BME280;40967;52.070;8.596;2023-12-22T11:35:18;98791.59;;;5.84;100.00
55070;BME280;40967;52.070;8.596;2023-12-22T11:37:48;98788.63;;;5.80;100.00
55070;BME280;40967;52.070;8.596;2023-12-22T11:40:16;98775.50;;;5.68;100.00
55070;BME280;40967;52.070;8.596;2023-12-22T11:42:49;98794.28;;;5.84;100.00
55070;BME280;40967;52.070;8.596;2023-12-22T11:45:17;98803.13;;;5.84;100.00
55070;BME280;40967;52.070;8.596;2023-12-22T11:47:45;98789.69;;;5.84;100.00
55070;BME280;40967;52.070;8.596;2023-12-22T11:50:13;98780.00;;;5.83;100.00
55070;BME280;40967;52.070;8.596;2023-12-22T11:52:54;98790.44;;;5.90;100.00
55070;BME280;40967;52.070;8.596;2023-12-22T11:58:38;98781.03;;;5.82;100.00
55070;BME280;40967;52.070;8.596;2023-12-22T12:01:07;98775.44;;;5.84;100.00
55070;BME280;40967;52.070;8.596;2023-12-22T12:03:36;98765.47;;;5.79;100.00
55070;BME280;40967;52.070;8.596;2023-12-22T12:09:07;98763.34;;;5.76;100.00
55070;BME280;40967;52.070;8.596;2023-12-22T12:12:15;98790.22;;;5.86;100.00
55070;BME280;40967;52.070;8.596;2023-12-22T12:14:48;98786.22;;;5.84;100.00
55070;BME280;40967;52.070;8.596;2023-12-22T12:17:18;98768.16;;;5.84;100.00
55070;BME280;40967;52.070;8.596;2023-12-22T12:19:47;98764.13;;;5.82;100.00
55070;BME280;40967;52.070;8.596;2023-12-22T12:22:22;98759.00;;;5.85;100.00
55070;BME280;40967;52.070;8.596;2023-12-22T12:24:50;98744.22;;;5.83;100.00
55070;BME280;40967;52.070;8.596;2023-12-22T12:27:18;98760.59;;;5.86;100.00
55070;BME280;40967;52.070;8.596;2023-12-22T12:29:49;98749.03;;;5.86;100.00
55070;BME280;40967;52.070;8.596;2023-12-22T12:32:17;98740.19;;;5.80;100.00
55070;BME280;40967;52.070;8.596;2023-12-22T12:34:44;98746.63;;;5.84;100.00
55070;BME280;40967;52.070;8.596;2023-12-22T12:37:11;98759.03;;;5.80;100.00
55070;BME280;40967;52.070;8.596;2023-12-22T12:39:41;98757.41;;;5.79;100.00
55070;BME280;40967;52.070;8.596;2023-12-22T12:42:11;98748.25;;;5.80;100.00
55070;BME280;40967;52.070;8.596;2023-12-22T12:44:42;98748.25;;;5.80;100.00
55070;BME280;40967;52.070;8.596;2023-12-22T12:47:17;98732.88;;;5.80;100.00
55070;BME280;40967;52.070;8.596;2023-12-22T12:49:45;98743.38;;;5.87;100.00
55070;BME280;40967;52.070;8.596;2023-12-22T12:52:13;98744.75;;;5.85;100.00
55070;BME280;40967;52.070;8.596;2023-12-22T12:54:40;98736.94;;;5.83;100.00
55070;BME280;40967;52.070;8.596;2023-12-22T12:57:07;98733.19;;;5.79;100.00
55070;BME280;40967;52.070;8.596;2023-12-22T12:59:36;98747.66;;;5.88;100.00
55070;BME280;40967;52.070;8.596;2023-12-22T13:02:04;98743.94;;;5.84;100.00
55070;BME280;40967;52.070;8.596;2023-12-22T13:04:38;98743.63;;;5.86;100.00
55070;BME280;40967;52.070;8.596;2023-12-22T13:07:12;98744.22;;;5.83;100.00
55070;BME280;40967;52.070;8.596;2023-12-22T13:09:39;98731.88;;;5.76;100.00
55070;BME280;40967;52.070;8.596;2023-12-22T13:12:08;98728.78;;;5.93;100.00
55070;BME280;40967;52.070;8.596;2023-12-22T13:14:35;98722.09;;;5.91;100.00
55070;BME280;40967;52.070;8.596;2023-12-22T13:17:02;98722.34;;;5.94;100.00
55070;BME280;40967;52.070;8.596;2023-12-22T13:19:29;98736.81;;;5.98;100.00
55070;BME280;40967;52.070;8.596;2023-12-22T13:21:58;98738.75;;;5.93;100.00
55070;BME280;40967;52.070;8.596;2023-12-22T13:24:26;98749.78;;;5.91;100.00
55070;BME280;40967;52.070;8.596;2023-12-22T13:27:00;98754.16;;;5.87;100.00
55070;BME280;40967;52.070;8.596;2023-12-22T13:29:27;98748.25;;;5.85;100.00
55070;BME280;40967;52.070;8.596;2023-12-22T13:31:55;98749.56;;;5.88;100.00